Time;durP1;ratioP1;P1;durP2;ratioP2;P2;SDS_P1;SDS_P2;PMS_P1;PMS_P2;Temp;Humidity;BMP_temperature;BMP_pressure;BME280_temperature;BME280_humidity;BME280_pressure;Samples;Min_cycle;Max_cycle;Signal;HPM_P1;HPM_P2
2021/05/11 00:00:22;;;;;;;2.75;2.35;;;20.70;98.50;;;;;;5072500;28;20589;-72
2021/05/11 00:02:49;;;;;;;2.13;1.80;;;20.60;98.50;;;;;;5072389;28;20687;-72
2021/05/11 00:05:16;;;;;;;2.30;2.10;;;20.60;98.60;;;;;;5072599;28;20206;-71
2021/05/11 00:07:42;;;;;;;2.20;2.00;;;20.60;98.70;;;;;;5063217;28;20234;-72
2021/05/11 00:10:09;;;;;;;2.67;2.00;;;20.50;99.00;;;;;;5072233;28;20538;-71
2021/05/11 00:12:36;;;;;;;1.83;1.73;;;20.50;98.90;;;;;;5063301;28;20225;-71
2021/05/11 00:15:02;;;;;;;3.08;1.75;;;20.50;99.00;;;;;;5063450;28;20199;-72
2021/05/11 00:17:29;;;;;;;1.85;1.55;;;20.50;99.20;;;;;;5071554;28;20186;-71
2021/05/11 00:19:56;;;;;;;2.17;1.65;;;20.50;99.30;;;;;;5072087;28;20238;-71
2021/05/11 00:22:22;;;;;;;1.70;1.60;;;20.50;99.40;;;;;;5070607;28;20702;-72
2021/05/11 00:24:48;;;;;;;1.58;1.48;;;20.50;99.50;;;;;;5064076;28;20260;-72
2021/05/11 00:27:14;;;;;;;2.70;1.70;;;20.50;99.60;;;;;;5072090;28;20197;-72
2021/05/11 00:29:40;;;;;;;3.05;1.52;;;20.40;99.70;;;;;;5071876;28;20198;-72
2021/05/11 00:32:07;;;;;;;1.83;1.55;;;20.40;99.80;;;;;;5058432;28;20539;-71
2021/05/11 00:34:33;;;;;;;2.92;1.55;;;20.40;99.90;;;;;;5071502;28;20190;-71
2021/05/11 00:37:00;;;;;;;1.30;1.15;;;20.40;99.90;;;;;;5062727;28;20206;-72
2021/05/11 00:39:26;;;;;;;1.67;1.55;;;20.40;99.90;;;;;;5071447;28;20210;-72
2021/05/11 00:41:52;;;;;;;1.58;1.48;;;20.30;99.90;;;;;;5065850;28;20198;-72
2021/05/11 00:44:19;;;;;;;2.40;1.55;;;20.30;99.90;;;;;;5059422;28;20546;-72
2021/05/11 00:46:53;;;;;;;1.73;1.63;;;20.30;99.90;;;;;;5069919;28;21315;-72
2021/05/11 00:49:20;;;;;;;2.58;1.98;;;20.30;99.90;;;;;;5071036;28;20198;-72
2021/05/11 00:51:46;;;;;;;1.95;1.60;;;20.30;99.90;;;;;;5071415;28;20287;-71
2021/05/11 00:54:13;;;;;;;1.80;1.50;;;20.20;99.90;;;;;;5068730;28;20565;-72
2021/05/11 00:56:40;;;;;;;1.50;1.40;;;20.20;99.90;;;;;;5063105;28;20565;-72
2021/05/11 00:59:12;;;;;;;2.30;1.42;;;20.20;99.90;;;;;;5071312;28;20215;-72
2021/05/11 01:01:38;;;;;;;1.40;1.30;;;20.20;99.90;;;;;;5071360;28;20232;-72
2021/05/11 01:04:05;;;;;;;1.30;1.20;;;20.20;99.90;;;;;;5061954;28;20203;-72
2021/05/11 01:06:31;;;;;;;1.42;1.33;;;20.10;99.90;;;;;;5064583;28;20190;-72
2021/05/11 01:08:57;;;;;;;1.55;1.38;;;20.10;99.90;;;;;;5071215;28;20202;-72
2021/05/11 01:11:24;;;;;;;1.48;1.38;;;20.10;99.90;;;;;;5070717;28;20283;-72
2021/05/11 01:13:51;;;;;;;1.65;1.10;;;20.10;99.90;;;;;;5070210;28;20198;-72
2021/05/11 01:16:17;;;;;;;1.58;1.42;;;20.10;99.90;;;;;;5061437;28;20202;-72
2021/05/11 01:18:44;;;;;;;1.92;1.70;;;20.00;99.90;;;;;;5064364;28;20681;-72
2021/05/11 01:21:23;;;;;;;1.80;1.70;;;20.00;99.90;;;;;;5070793;28;20285;-72
2021/05/11 01:24:06;;;;;;;2.15;1.20;;;20.00;99.90;;;;;;5069100;28;20197;-72
2021/05/11 01:26:39;;;;;;;2.72;1.85;;;20.00;99.90;;;;;;5070987;28;20197;-71
2021/05/11 01:29:15;;;;;;;1.40;1.30;;;20.00;99.90;;;;;;5070766;28;20288;-71
2021/05/11 01:32:06;;;;;;;1.25;1.15;;;19.90;99.90;;;;;;5068904;28;20233;-72
2021/05/11 01:46:01;;;;;;;2.55;1.45;;;19.80;99.90;;;;;;5069732;28;20581;-71
2021/05/11 01:48:37;;;;;;;3.10;1.40;;;19.80;99.90;;;;;;5069025;28;20706;-72
2021/05/11 01:51:22;;;;;;;1.23;1.13;;;19.80;99.90;;;;;;5070556;28;20221;-72
2021/05/11 01:54:09;;;;;;;2.97;1.77;;;19.80;99.90;;;;;;5067242;28;20198;-72
2021/05/11 02:10:48;;;;;;;2.75;1.25;;;19.70;99.90;;;;;;5070417;28;20196;-72
2021/05/11 02:24:18;;;;;;;1.27;1.17;;;19.60;99.90;;;;;;5069670;28;20236;-71
2021/05/11 02:26:44;;;;;;;1.50;1.10;;;19.50;99.90;;;;;;5070091;28;20198;-72
2021/05/11 02:29:12;;;;;;;1.40;1.00;;;19.50;99.90;;;;;;5068844;28;20205;-72
2021/05/11 02:31:38;;;;;;;1.23;1.13;;;19.50;99.90;;;;;;5069731;28;20754;-71
2021/05/11 02:34:04;;;;;;;1.75;1.25;;;19.50;99.90;;;;;;5068694;28;20198;-72
2021/05/11 02:36:30;;;;;;;1.40;1.10;;;19.50;99.90;;;;;;5073093;28;20194;-72
2021/05/11 02:38:57;;;;;;;1.52;1.20;;;19.50;99.90;;;;;;5074021;28;20194;-72
2021/05/11 02:41:23;;;;;;;1.40;1.17;;;19.40;99.90;;;;;;5073363;28;20651;-72
2021/05/11 02:43:49;;;;;;;1.30;1.20;;;19.40;99.90;;;;;;5058624;28;20203;-72
2021/05/11 02:46:16;;;;;;;1.20;1.10;;;19.40;99.90;;;;;;5062572;28;20686;-72
2021/05/11 02:48:42;;;;;;;1.42;1.10;;;19.40;99.90;;;;;;5073044;28;20484;-72
2021/05/11 02:51:08;;;;;;;1.27;1.17;;;19.40;99.90;;;;;;5056704;28;20234;-72
2021/05/11 02:53:35;;;;;;;1.45;1.23;;;19.30;99.90;;;;;;5065663;28;20193;-72
2021/05/11 02:56:01;;;;;;;1.40;0.90;;;19.30;99.90;;;;;;5071233;28;20202;-72
2021/05/11 02:58:29;;;;;;;1.13;1.02;;;19.30;99.90;;;;;;5073494;28;20206;-72
2021/05/11 03:00:55;;;;;;;1.98;1.30;;;19.30;99.90;;;;;;5065715;28;20202;-72
2021/05/11 03:03:22;;;;;;;1.20;1.10;;;19.30;99.90;;;;;;5073641;28;20198;-72
2021/05/11 03:05:48;;;;;;;1.20;1.02;;;19.30;99.90;;;;;;5068864;28;20203;-72
2021/05/11 03:08:15;;;;;;;1.20;0.90;;;19.30;99.90;;;;;;5073024;28;20228;-72
2021/05/11 03:10:41;;;;;;;1.50;1.17;;;19.30;99.90;;;;;;5059637;28;20292;-73
2021/05/11 03:13:08;;;;;;;1.23;0.90;;;19.20;99.90;;;;;;5072534;28;20209;-72
2021/05/11 03:15:34;;;;;;;2.03;1.30;;;19.20;99.90;;;;;;5073566;28;20216;-72
2021/05/11 03:18:00;;;;;;;1.27;1.08;;;19.20;99.90;;;;;;5073284;28;20251;-72
2021/05/11 03:20:27;;;;;;;1.20;1.00;;;19.20;99.90;;;;;;5057887;28;20242;-72
2021/05/11 03:22:53;;;;;;;1.35;1.13;;;19.20;99.90;;;;;;5072221;28;20657;-73
2021/05/11 03:25:19;;;;;;;1.48;1.10;;;19.20;99.90;;;;;;5073260;28;20206;-72
2021/05/11 03:27:46;;;;;;;1.95;1.10;;;19.10;99.90;;;;;;5072307;28;20212;-72
2021/05/11 03:30:13;;;;;;;1.10;0.90;;;19.10;99.90;;;;;;5072691;28;20255;-72
2021/05/11 03:32:39;;;;;;;1.17;1.05;;;19.10;99.90;;;;;;5072932;28;20250;-72
2021/05/11 03:35:06;;;;;;;1.10;0.90;;;19.10;99.90;;;;;;5059027;28;20202;-71
2021/05/11 03:37:33;;;;;;;1.30;0.80;;;19.10;99.90;;;;;;5072840;28;20198;-72
2021/05/11 03:39:59;;;;;;;1.20;1.00;;;19.10;99.90;;;;;;5072245;28;20202;-73
2021/05/11 03:42:28;;;;;;;2.00;1.00;;;19.10;99.90;;;;;;5068368;28;20199;-72
2021/05/11 03:44:57;;;;;;;1.35;1.02;;;19.10;99.90;;;;;;5072990;28;20650;-73
2021/05/11 03:47:24;;;;;;;1.20;1.02;;;19.00;99.90;;;;;;5059838;28;20199;-72
2021/05/11 03:49:51;;;;;;;1.30;1.10;;;19.00;99.90;;;;;;5052750;28;20658;-73
2021/05/11 03:52:17;;;;;;;1.77;1.13;;;19.00;99.90;;;;;;5069780;28;20225;-72
2021/05/11 03:54:44;;;;;;;2.40;1.10;;;19.00;99.90;;;;;;5072645;28;20555;-72
2021/05/11 03:57:12;;;;;;;1.02;0.90;;;19.00;99.90;;;;;;5060104;28;20195;-73
2021/05/11 03:59:38;;;;;;;1.58;1.10;;;19.00;99.90;;;;;;5071786;28;20882;-72
2021/05/11 04:02:05;;;;;;;1.45;1.00;;;19.00;99.90;;;;;;5072830;28;20194;-72
2021/05/11 04:04:32;;;;;;;1.38;1.00;;;19.00;99.90;;;;;;5066934;28;20252;-72
2021/05/11 04:06:58;;;;;;;2.30;0.88;;;18.90;99.90;;;;;;5064410;28;20202;-72
2021/05/11 04:09:28;;;;;;;1.50;1.40;;;18.90;99.90;;;;;;5071659;28;20186;-72
2021/05/11 04:12:12;;;;;;;1.42;0.90;;;18.90;99.90;;;;;;5072475;28;20460;-71
2021/05/11 04:17:30;;;;;;;1.50;1.10;;;18.90;99.90;;;;;;5068963;28;20236;-71
2021/05/11 04:19:57;;;;;;;1.25;1.00;;;18.90;99.90;;;;;;5069946;28;20268;-71
2021/05/11 04:22:23;;;;;;;1.10;1.00;;;18.90;99.90;;;;;;5071703;28;20190;-71
2021/05/11 04:24:49;;;;;;;1.10;0.93;;;18.80;99.90;;;;;;5070461;28;20508;-71
2021/05/11 04:27:16;;;;;;;1.10;0.90;;;18.80;99.90;;;;;;5072250;28;20197;-71
2021/05/11 04:29:43;;;;;;;1.20;1.10;;;18.80;99.90;;;;;;5070162;28;20566;-72
2021/05/11 04:32:09;;;;;;;1.30;1.10;;;18.80;99.90;;;;;;5071718;28;20252;-72
2021/05/11 04:34:35;;;;;;;1.38;1.00;;;18.80;99.90;;;;;;5071425;28;20194;-72
2021/05/11 04:37:01;;;;;;;1.13;1.00;;;18.80;99.90;;;;;;5071859;28;20197;-72
2021/05/11 04:39:27;;;;;;;1.20;0.90;;;18.80;99.90;;;;;;5051893;28;20210;-72
2021/05/11 04:41:54;;;;;;;2.33;1.40;;;18.80;99.90;;;;;;5058785;28;20609;-72
2021/05/11 04:44:24;;;;;;;1.10;1.00;;;18.80;99.90;;;;;;5068028;28;20203;-72
2021/05/11 04:46:56;;;;;;;1.50;1.35;;;18.80;99.90;;;;;;5065982;28;20198;-72
2021/05/11 04:49:23;;;;;;;1.20;1.10;;;18.80;99.90;;;;;;5071645;28;20661;-72
2021/05/11 04:51:50;;;;;;;2.20;1.08;;;18.70;99.90;;;;;;5071070;28;20217;-72
2021/05/11 04:54:16;;;;;;;1.30;1.20;;;18.70;99.90;;;;;;5069705;28;20201;-72
2021/05/11 04:56:42;;;;;;;1.30;1.20;;;18.70;99.90;;;;;;5067195;28;20212;-72
2021/05/11 04:59:08;;;;;;;1.20;1.10;;;18.70;99.90;;;;;;5070783;28;20989;-71
2021/05/11 05:01:35;;;;;;;1.35;1.17;;;18.70;99.90;;;;;;5067363;28;20194;-72
2021/05/11 05:04:02;;;;;;;1.85;1.30;;;18.70;99.90;;;;;;5071010;28;20198;-72
2021/05/11 05:06:29;;;;;;;1.75;1.33;;;18.70;99.90;;;;;;5071355;28;20194;-71
2021/05/11 05:08:55;;;;;;;1.40;1.00;;;18.80;99.90;;;;;;5069874;28;20642;-72
2021/05/11 05:11:22;;;;;;;1.20;0.98;;;18.80;99.90;;;;;;5070350;28;20205;-72
2021/05/11 05:13:48;;;;;;;1.30;0.93;;;18.70;99.90;;;;;;5069722;28;20202;-71
2021/05/11 05:16:14;;;;;;;2.42;1.23;;;18.80;99.90;;;;;;5070966;28;20190;-71
2021/05/11 05:18:41;;;;;;;1.50;1.00;;;18.70;99.90;;;;;;5070785;28;20675;-71
2021/05/11 05:21:08;;;;;;;1.27;1.17;;;18.70;99.90;;;;;;5070477;28;20200;-71
2021/05/11 05:23:44;;;;;;;1.23;1.00;;;18.70;99.90;;;;;;5066898;28;20208;-71
2021/05/11 05:26:11;;;;;;;1.52;1.00;;;18.70;99.90;;;;;;5062160;28;20201;-72
2021/05/11 05:28:38;;;;;;;1.30;0.95;;;18.70;99.90;;;;;;5069363;28;20233;-72
2021/05/11 05:31:04;;;;;;;1.38;0.98;;;18.70;99.90;;;;;;5070882;28;20227;-72
2021/05/11 05:33:32;;;;;;;1.58;1.02;;;18.60;99.90;;;;;;5069363;28;20243;-72
2021/05/11 05:35:59;;;;;;;1.10;0.90;;;18.60;99.90;;;;;;5070700;28;20217;-72
2021/05/11 05:38:26;;;;;;;1.30;1.00;;;18.60;99.90;;;;;;5064186;28;20237;-72
2021/05/11 05:40:57;;;;;;;1.70;1.13;;;18.60;99.90;;;;;;5050793;28;20206;-71
2021/05/11 05:43:23;;;;;;;1.27;1.17;;;18.60;99.90;;;;;;5068152;28;20512;-72
2021/05/11 05:45:52;;;;;;;1.00;0.90;;;18.60;99.90;;;;;;5070636;28;20232;-72
2021/05/11 05:48:19;;;;;;;1.70;1.10;;;18.60;99.90;;;;;;5068497;28;20212;-72
2021/05/11 05:50:46;;;;;;;1.15;0.93;;;18.60;99.90;;;;;;5070099;28;20194;-72
2021/05/11 05:53:15;;;;;;;1.40;1.10;;;18.70;99.90;;;;;;5070504;28;20278;-73
2021/05/11 05:55:42;;;;;;;1.30;1.20;;;18.60;99.90;;;;;;5070060;28;20190;-73
2021/05/11 05:58:08;;;;;;;1.00;0.88;;;18.60;99.90;;;;;;5069607;28;20206;-73
2021/05/11 06:00:34;;;;;;;1.30;1.00;;;18.60;99.90;;;;;;5062692;28;20198;-72
2021/05/11 06:03:05;;;;;;;2.97;1.20;;;18.60;99.90;;;;;;5070215;28;20232;-72
2021/05/11 06:05:32;;;;;;;1.95;1.20;;;18.60;99.90;;;;;;5064430;28;20190;-71
2021/05/11 06:07:59;;;;;;;1.50;1.10;;;18.70;99.90;;;;;;5069621;28;20881;-72
2021/05/11 06:10:29;;;;;;;1.77;1.00;;;18.80;99.90;;;;;;5068908;28;20276;-72
2021/05/11 06:12:59;;;;;;;1.15;0.90;;;19.00;99.90;;;;;;5070050;28;20233;-72
2021/05/11 06:18:12;;;;;;;2.85;1.08;;;19.60;99.90;;;;;;5069674;28;20189;-72
2021/05/11 06:20:38;;;;;;;1.40;1.30;;;19.80;99.90;;;;;;5063631;28;20257;-72
2021/05/11 06:23:04;;;;;;;1.00;0.80;;;19.90;99.90;;;;;;5070174;28;20700;-72
2021/05/11 06:25:31;;;;;;;1.58;1.38;;;20.00;99.90;;;;;;5067897;28;20197;-72
2021/05/11 06:27:58;;;;;;;1.98;1.33;;;20.00;99.90;;;;;;5067084;28;20587;-72
2021/05/11 06:30:25;;;;;;;2.47;1.30;;;20.00;99.90;;;;;;5050418;28;20272;-73
2021/05/11 06:32:51;;;;;;;1.10;1.00;;;19.80;99.90;;;;;;5066354;28;20640;-72
2021/05/11 06:35:17;;;;;;;2.42;1.13;;;19.70;99.90;;;;;;5066296;28;20243;-72
2021/05/11 06:37:44;;;;;;;2.30;1.45;;;19.60;99.90;;;;;;5070321;28;20206;-71
2021/05/11 06:40:11;;;;;;;1.40;1.30;;;19.60;99.90;;;;;;5069772;28;20623;-71
2021/05/11 06:42:40;;;;;;;1.27;0.98;;;19.50;99.90;;;;;;5061718;28;20605;-71
2021/05/11 06:45:16;;;;;;;1.70;1.02;;;19.50;99.90;;;;;;5062794;28;20232;-71
2021/05/11 06:47:59;;;;;;;1.60;1.20;;;19.30;99.90;;;;;;5052332;28;20567;-71
2021/05/11 06:50:32;;;;;;;1.20;1.00;;;19.30;99.90;;;;;;5053162;28;20190;-71
2021/05/11 06:55:43;;;;;;;1.70;1.05;;;19.20;99.90;;;;;;5062027;28;20201;-71
2021/05/11 06:58:11;;;;;;;2.55;1.30;;;19.20;99.90;;;;;;5069913;28;20216;-71
2021/05/11 07:00:42;;;;;;;1.45;1.20;;;19.10;99.90;;;;;;5069986;28;20195;-71
2021/05/11 07:03:08;;;;;;;1.75;1.23;;;19.10;99.90;;;;;;5069931;28;20205;-71
2021/05/11 07:05:36;;;;;;;1.45;1.20;;;19.00;99.90;;;;;;5068774;28;20256;-71
2021/05/11 07:08:12;;;;;;;1.58;1.00;;;19.00;99.90;;;;;;5069271;28;20197;-70
2021/05/11 07:10:39;;;;;;;1.38;0.95;;;19.00;99.90;;;;;;5056199;28;20194;-70
2021/05/11 07:13:11;;;;;;;1.52;1.10;;;19.00;99.90;;;;;;5054065;28;20229;-71
2021/05/11 07:15:40;;;;;;;1.25;1.10;;;19.00;99.90;;;;;;5069652;28;20182;-70
2021/05/11 07:18:13;;;;;;;1.45;1.00;;;19.00;99.90;;;;;;5069188;28;20252;-69
2021/05/11 07:20:40;;;;;;;1.92;0.98;;;19.00;99.90;;;;;;5059704;28;20203;-69
2021/05/11 07:23:06;;;;;;;1.60;1.20;;;19.00;99.90;;;;;;5073080;28;20201;-69
2021/05/11 07:25:38;;;;;;;2.42;1.20;;;18.90;99.90;;;;;;5064573;28;20228;-69
2021/05/11 07:28:34;;;;;;;2.47;1.40;;;18.90;99.90;;;;;;5072950;28;20192;-69
2021/05/11 07:31:03;;;;;;;1.40;1.10;;;18.90;99.90;;;;;;5072372;28;20198;-69
2021/05/11 07:33:32;;;;;;;1.52;1.20;;;18.90;99.90;;;;;;5072121;28;20204;-69
2021/05/11 07:35:59;;;;;;;1.80;1.27;;;18.90;99.90;;;;;;5064341;28;20562;-69
2021/05/11 07:38:26;;;;;;;1.40;1.30;;;18.90;99.90;;;;;;5069233;28;20202;-69
2021/05/11 07:40:52;;;;;;;1.73;1.50;;;19.00;99.90;;;;;;5072348;28;20202;-68
2021/05/11 07:43:19;;;;;;;1.50;1.27;;;19.00;99.90;;;;;;5058188;28;20203;-69
2021/05/11 07:46:04;;;;;;;2.60;1.35;;;19.00;99.90;;;;;;5062714;28;20283;-69
2021/05/11 07:48:46;;;;;;;1.83;1.60;;;19.00;99.90;;;;;;5069302;28;20260;-70
2021/05/11 08:02:22;;;;;;;2.97;1.70;;;19.00;99.90;;;;;;5053626;28;20197;-71
2021/05/11 08:04:59;;;;;;;1.70;1.40;;;19.00;99.90;;;;;;5069491;28;20190;-70
2021/05/11 08:10:23;;;;;;;2.03;1.75;;;18.90;99.90;;;;;;5055804;28;20201;-72
2021/05/11 08:15:44;;;;;;;1.75;1.65;;;19.00;99.90;;;;;;5018125;28;20307;-70
2021/05/11 08:18:16;;;;;;;2.33;1.60;;;19.00;99.90;;;;;;5072629;28;20221;-71
2021/05/11 08:29:07;;;;;;;1.52;1.30;;;19.00;99.90;;;;;;5053126;28;20252;-69
2021/05/11 08:31:34;;;;;;;1.60;1.50;;;19.00;99.90;;;;;;5052990;28;20234;-69
2021/05/11 08:34:00;;;;;;;2.13;1.75;;;19.00;99.90;;;;;;5052052;28;20209;-72
2021/05/11 08:36:27;;;;;;;2.28;1.80;;;19.10;99.90;;;;;;5054378;28;20211;-78
2021/05/11 08:38:56;;;;;;;1.42;1.33;;;19.10;99.90;;;;;;5055638;28;20562;-71
2021/05/11 08:41:22;;;;;;;1.90;1.45;;;19.10;99.90;;;;;;5052755;28;20198;-71
2021/05/11 08:43:49;;;;;;;2.38;1.42;;;19.10;99.90;;;;;;5053175;28;20202;-72
2021/05/11 08:46:15;;;;;;;2.95;1.77;;;19.10;99.90;;;;;;5052346;28;20617;-71
2021/05/11 08:48:41;;;;;;;3.05;1.50;;;19.20;99.90;;;;;;5052692;28;20195;-71
2021/05/11 08:51:11;;;;;;;2.75;1.70;;;19.30;99.90;;;;;;5070133;28;20194;-72
2021/05/11 08:54:02;;;;;;;2.50;2.00;;;19.30;99.90;;;;;;5081480;28;20194;-72
2021/05/11 09:04:58;;;;;;;1.65;1.55;;;19.60;99.90;;;;;;5061148;28;20196;-71
2021/05/11 09:24:22;;;;;;;3.17;2.88;;;19.50;99.90;;;;;;5066309;28;20241;-71
2021/05/11 09:26:53;;;;;;;3.45;3.15;;;19.40;99.90;;;;;;5070617;28;20653;-73
2021/05/11 09:29:28;;;;;;;3.05;2.80;;;19.40;99.90;;;;;;5070943;28;20194;-71
2021/05/11 09:32:11;;;;;;;3.08;2.88;;;19.40;99.90;;;;;;5060678;28;20653;-70
2021/05/11 09:34:45;;;;;;;3.40;2.33;;;19.40;99.90;;;;;;5050883;28;20260;-69
2021/05/11 09:54:35;;;;;;;1.77;1.30;;;19.20;99.90;;;;;;5050165;28;20704;-70
2021/05/11 09:57:12;;;;;;;2.30;1.38;;;19.20;99.90;;;;;;5050589;28;20516;-70
2021/05/11 10:14:43;;;;;;;1.33;1.23;;;19.20;99.90;;;;;;5049668;28;20217;-69
2021/05/11 10:32:14;;;;;;;3.25;1.13;;;19.10;99.90;;;;;;5069397;28;20228;-70
2021/05/11 10:38:17;;;;;;;2.13;1.67;;;19.10;99.90;;;;;;5067182;28;20223;-70
2021/05/11 10:44:06;;;;;;;1.10;1.00;;;19.10;99.90;;;;;;5070207;28;20277;-70
2021/05/11 10:46:53;;;;;;;1.55;1.40;;;19.00;99.90;;;;;;5067011;28;20198;-70
2021/05/11 10:49:25;;;;;;;1.55;1.40;;;19.10;99.90;;;;;;5068765;28;20794;-69
2021/05/11 10:52:11;;;;;;;2.03;1.40;;;19.00;99.90;;;;;;5070519;28;20543;-71
2021/05/11 10:54:39;;;;;;;2.40;1.60;;;19.00;99.90;;;;;;5056536;28;20199;-71
2021/05/11 10:57:31;;;;;;;1.40;1.30;;;19.00;99.90;;;;;;5054755;28;20222;-71
2021/05/11 11:00:15;;;;;;;1.33;1.20;;;19.00;99.90;;;;;;5058322;28;20844;-71
2021/05/11 11:02:45;;;;;;;2.30;1.70;;;19.00;99.90;;;;;;5058981;28;20198;-71
2021/05/11 11:05:12;;;;;;;1.35;1.20;;;19.00;99.90;;;;;;5073539;28;20251;-71
2021/05/11 11:07:42;;;;;;;2.45;1.70;;;19.00;99.90;;;;;;5074713;28;20210;-69
2021/05/11 11:10:10;;;;;;;1.40;1.13;;;19.00;99.90;;;;;;5074211;28;20182;-69
2021/05/11 11:12:41;;;;;;;1.52;1.00;;;19.00;99.90;;;;;;5054345;28;20590;-69
2021/05/11 11:15:14;;;;;;;1.73;1.52;;;18.90;99.90;;;;;;5053787;28;20283;-70
2021/05/11 11:17:42;;;;;;;1.50;0.98;;;18.90;99.90;;;;;;5054331;28;20357;-70
2021/05/11 11:20:11;;;;;;;3.55;0.98;;;19.00;99.90;;;;;;5053456;28;20230;-70
2021/05/11 11:25:23;;;;;;;1.00;0.90;;;19.00;99.90;;;;;;5073955;28;20197;-70
2021/05/11 11:27:50;;;;;;;1.10;0.90;;;18.90;99.90;;;;;;5072017;28;20633;-71
2021/05/11 11:30:17;;;;;;;1.25;1.15;;;18.90;99.90;;;;;;5072871;28;20539;-71
2021/05/11 11:32:44;;;;;;;1.40;1.00;;;19.00;99.90;;;;;;5054111;28;20647;-70
2021/05/11 11:35:12;;;;;;;1.80;1.30;;;19.00;99.90;;;;;;5071118;28;20202;-70
2021/05/11 11:37:39;;;;;;;1.65;1.55;;;19.00;99.90;;;;;;5069328;28;20522;-70
2021/05/11 11:40:07;;;;;;;1.98;1.77;;;19.00;99.90;;;;;;5073966;28;20297;-70
2021/05/11 11:42:37;;;;;;;3.40;1.65;;;19.00;99.90;;;;;;5054297;28;20191;-70
2021/05/11 11:45:05;;;;;;;1.38;1.27;;;19.00;99.90;;;;;;5063862;28;20538;-70
2021/05/11 11:47:40;;;;;;;1.38;1.20;;;19.00;99.90;;;;;;5073593;28;20270;-70
2021/05/11 11:50:08;;;;;;;2.40;1.38;;;19.00;99.90;;;;;;5058332;28;20499;-69
2021/05/11 11:52:38;;;;;;;1.73;1.63;;;19.00;99.90;;;;;;5053580;28;20227;-70
2021/05/11 11:57:54;;;;;;;4.43;1.70;;;19.00;99.90;;;;;;5054621;28;20535;-70
2021/05/11 12:00:23;;;;;;;2.38;1.63;;;19.00;99.90;;;;;;5073702;28;20247;-70
2021/05/11 12:02:53;;;;;;;3.40;1.95;;;19.00;99.90;;;;;;5073432;28;20589;-70
2021/05/11 12:05:21;;;;;;;1.17;1.08;;;18.90;99.90;;;;;;5065507;28;20631;-71
2021/05/11 12:08:09;;;;;;;1.10;0.90;;;18.90;99.90;;;;;;5071486;28;20194;-71
2021/05/11 12:10:38;;;;;;;1.30;1.10;;;18.90;99.90;;;;;;5073470;28;20190;-70
2021/05/11 12:13:07;;;;;;;1.77;1.08;;;18.90;99.90;;;;;;5071593;28;20223;-70
2021/05/11 12:15:34;;;;;;;2.42;1.23;;;18.90;99.90;;;;;;5073232;28;20293;-71
2021/05/11 12:18:05;;;;;;;1.17;1.08;;;18.90;99.90;;;;;;5072382;28;20672;-70
2021/05/11 12:20:32;;;;;;;1.52;1.20;;;18.80;99.90;;;;;;5073169;28;20202;-70
2021/05/11 12:23:09;;;;;;;1.75;1.10;;;18.80;99.90;;;;;;5053263;28;20264;-71
2021/05/11 12:25:36;;;;;;;1.20;1.05;;;18.80;99.90;;;;;;5062186;28;20593;-69
2021/05/11 12:28:03;;;;;;;1.30;1.10;;;18.80;99.90;;;;;;5057450;28;20516;-69
2021/05/11 12:30:38;;;;;;;1.35;1.00;;;18.80;99.90;;;;;;5072867;28;20186;-70
2021/05/11 12:33:06;;;;;;;1.33;1.15;;;18.80;99.90;;;;;;5072598;28;20206;-70
2021/05/11 12:35:33;;;;;;;1.92;1.30;;;18.80;99.90;;;;;;5073173;28;20194;-70
2021/05/11 12:38:04;;;;;;;2.05;1.20;;;18.80;99.90;;;;;;5053721;28;20277;-70
2021/05/11 12:41:01;;;;;;;1.42;1.02;;;18.80;99.90;;;;;;5056269;28;20540;-70
2021/05/11 12:43:43;;;;;;;1.60;1.20;;;18.80;99.90;;;;;;5062216;28;20197;-70
2021/05/11 12:46:19;;;;;;;1.30;1.10;;;18.80;99.90;;;;;;5070567;28;20542;-69
2021/05/11 12:48:53;;;;;;;1.15;1.05;;;18.80;99.90;;;;;;5072656;28;20188;-69
2021/05/11 12:51:31;;;;;;;2.85;1.60;;;18.70;99.90;;;;;;5072727;28;20205;-69
2021/05/11 12:54:00;;;;;;;1.38;1.27;;;18.70;99.90;;;;;;5071478;28;20217;-69
2021/05/11 12:56:45;;;;;;;1.30;1.20;;;18.80;99.90;;;;;;5066681;28;20256;-69
2021/05/11 12:59:12;;;;;;;1.10;1.00;;;18.80;99.90;;;;;;5068236;28;20248;-69
2021/05/11 13:01:57;;;;;;;1.35;1.25;;;18.70;99.90;;;;;;5072318;28;20190;-69
2021/05/11 13:04:52;;;;;;;1.55;1.20;;;18.70;99.90;;;;;;5072537;28;20190;-71
2021/05/11 13:15:39;;;;;;;2.75;1.25;;;18.70;99.90;;;;;;5068192;28;20240;-70
2021/05/11 13:26:24;;;;;;;1.55;1.45;;;18.70;99.90;;;;;;5071791;28;20185;-70
2021/05/11 13:28:54;;;;;;;2.55;1.50;;;18.70;99.90;;;;;;5070734;28;20221;-70
2021/05/11 13:31:26;;;;;;;1.58;1.48;;;18.70;99.90;;;;;;5071443;28;20199;-70
2021/05/11 13:33:58;;;;;;;1.85;1.63;;;18.70;99.90;;;;;;5055988;28;20198;-71
2021/05/11 13:36:24;;;;;;;2.00;1.20;;;18.70;99.90;;;;;;5071313;28;20678;-71
2021/05/11 13:38:50;;;;;;;1.70;1.50;;;18.60;99.90;;;;;;5070283;28;20255;-70
2021/05/11 13:41:17;;;;;;;1.60;1.48;;;18.60;99.90;;;;;;5071774;28;20554;-70
2021/05/11 13:43:43;;;;;;;1.88;1.77;;;18.60;99.90;;;;;;5062810;28;20195;-70
2021/05/11 13:46:09;;;;;;;1.83;1.35;;;18.60;99.90;;;;;;5071377;28;20795;-70
2021/05/11 13:48:37;;;;;;;2.28;1.45;;;18.60;99.90;;;;;;5071452;28;20542;-70
2021/05/11 13:51:10;;;;;;;1.50;1.33;;;18.60;99.90;;;;;;5060677;28;20690;-70
2021/05/11 13:53:38;;;;;;;1.65;1.48;;;18.60;99.90;;;;;;5051609;28;20214;-70
2021/05/11 13:56:21;;;;;;;2.08;1.45;;;18.60;99.90;;;;;;5051088;28;20198;-71
2021/05/11 14:04:13;;;;;;;2.80;2.20;;;18.60;99.90;;;;;;5072976;28;20197;-70
2021/05/11 14:06:41;;;;;;;3.35;1.80;;;18.60;99.90;;;;;;5067676;28;20196;-70
2021/05/11 14:09:07;;;;;;;2.95;2.75;;;18.60;99.90;;;;;;5070352;28;20674;-70
2021/05/11 14:11:33;;;;;;;3.03;2.72;;;18.60;99.90;;;;;;5071141;28;20251;-69
2021/05/11 14:14:00;;;;;;;5.10;3.80;;;18.60;99.90;;;;;;5066228;28;20264;-70
2021/05/11 14:16:26;;;;;;;4.93;2.90;;;18.60;99.90;;;;;;5051306;28;20210;-71
2021/05/11 14:18:52;;;;;;;2.72;2.47;;;18.60;99.90;;;;;;5058519;28;20241;-69
2021/05/11 14:21:18;;;;;;;3.33;3.05;;;18.60;99.90;;;;;;5057148;28;20210;-70
2021/05/11 14:23:45;;;;;;;2.30;1.95;;;18.60;99.90;;;;;;5062612;28;20287;-69
2021/05/11 14:26:12;;;;;;;2.60;2.40;;;18.60;99.90;;;;;;5065276;28;20207;-70
2021/05/11 14:28:38;;;;;;;2.30;2.10;;;18.60;99.90;;;;;;5051031;28;20642;-70
2021/05/11 14:31:04;;;;;;;2.85;2.50;;;18.60;99.90;;;;;;5051737;28;20195;-70
2021/05/11 14:33:31;;;;;;;2.92;2.47;;;18.60;99.90;;;;;;5055051;28;20828;-71
2021/05/11 14:35:57;;;;;;;2.42;2.22;;;18.60;99.90;;;;;;5067223;28;20201;-71
2021/05/11 14:38:23;;;;;;;3.38;3.00;;;18.60;99.90;;;;;;5065358;28;20651;-71
2021/05/11 14:40:50;;;;;;;2.60;2.40;;;18.60;99.90;;;;;;5055140;28;20198;-70
2021/05/11 14:43:16;;;;;;;2.67;2.47;;;18.60;99.90;;;;;;5054844;28;20191;-70
2021/05/11 14:45:42;;;;;;;2.80;2.60;;;18.60;99.90;;;;;;5055094;28;20211;-71
2021/05/11 14:48:09;;;;;;;2.65;2.45;;;18.60;99.90;;;;;;5054883;28;20221;-70
2021/05/11 14:50:35;;;;;;;1.90;1.80;;;18.60;99.90;;;;;;5067977;28;20198;-69
2021/05/11 14:53:02;;;;;;;3.03;2.17;;;18.60;99.90;;;;;;5054808;28;20532;-70
2021/05/11 14:55:28;;;;;;;2.25;2.15;;;18.60;99.90;;;;;;5054976;28;20207;-70
2021/05/11 14:57:56;;;;;;;2.65;2.45;;;18.60;99.90;;;;;;5059633;28;20255;-70
2021/05/11 15:00:23;;;;;;;2.40;2.20;;;18.60;99.90;;;;;;5074599;28;20198;-70
2021/05/11 15:02:49;;;;;;;2.92;2.30;;;18.60;99.90;;;;;;5074306;28;20186;-70
2021/05/11 15:05:15;;;;;;;3.15;2.63;;;18.60;99.90;;;;;;5074043;28;20209;-70
2021/05/11 15:07:42;;;;;;;4.50;2.40;;;18.60;99.90;;;;;;5054592;28;20210;-69
2021/05/11 15:10:08;;;;;;;2.10;1.80;;;18.60;99.90;;;;;;5064452;28;20205;-70
2021/05/11 15:12:35;;;;;;;2.55;2.35;;;18.60;99.90;;;;;;5074337;28;20222;-70
2021/05/11 15:15:02;;;;;;;4.95;2.10;;;18.60;99.90;;;;;;5071944;28;20687;-70
2021/05/11 15:20:14;;;;;;;2.55;2.35;;;18.60;99.90;;;;;;5073842;28;20343;-71
2021/05/11 15:22:41;;;;;;;2.83;2.58;;;18.60;99.90;;;;;;5074423;28;20198;-70
2021/05/11 15:25:08;;;;;;;2.63;2.42;;;18.60;99.90;;;;;;5059885;28;20202;-72
2021/05/11 15:27:36;;;;;;;2.88;2.33;;;18.60;99.90;;;;;;5054543;28;20218;-71
2021/05/11 15:30:05;;;;;;;3.00;2.72;;;18.60;99.90;;;;;;5066425;28;20232;-70
2021/05/11 15:32:40;;;;;;;2.40;2.13;;;18.60;99.90;;;;;;5060239;28;20246;-70
2021/05/11 15:35:07;;;;;;;3.20;2.03;;;18.60;99.90;;;;;;5053822;28;20202;-69
2021/05/11 15:37:34;;;;;;;2.67;2.08;;;18.60;99.90;;;;;;5073838;28;20206;-70
2021/05/11 15:40:00;;;;;;;2.53;2.33;;;18.60;99.90;;;;;;5073037;28;20206;-70
2021/05/11 15:42:26;;;;;;;2.15;1.95;;;18.60;99.90;;;;;;5073050;28;20198;-70
2021/05/11 15:44:52;;;;;;;2.33;2.10;;;18.60;99.90;;;;;;5065432;28;20191;-70
2021/05/11 15:47:20;;;;;;;1.95;1.83;;;18.60;99.90;;;;;;5053852;28;20202;-70
2021/05/11 15:49:46;;;;;;;2.60;2.40;;;18.60;99.90;;;;;;5053689;28;20306;-70
2021/05/11 15:52:13;;;;;;;2.88;2.58;;;18.60;99.90;;;;;;5059598;28;20562;-71
2021/05/11 15:54:39;;;;;;;1.63;1.52;;;18.60;99.90;;;;;;5073718;28;20220;-69
2021/05/11 15:57:06;;;;;;;1.95;1.70;;;18.60;99.90;;;;;;5073906;28;20212;-70